sensor_id;sensor_type;location;lat;lon;timestamp;temperature;humidity
58517;DHT22;44308;50.810;0.284;2023-02-28T00:01:41;5.30;99.90
58517;DHT22;44308;50.810;0.284;2023-02-28T00:04:06;5.40;99.90
58517;DHT22;44308;50.810;0.284;2023-02-28T00:06:53;5.30;99.90
58517;DHT22;44308;50.810;0.284;2023-02-28T00:09:19;5.30;99.90
58517;DHT22;44308;50.810;0.284;2023-02-28T00:11:44;5.30;99.90
58517;DHT22;44308;50.810;0.284;2023-02-28T00:14:10;5.30;99.90
58517;DHT22;44308;50.810;0.284;2023-02-28T00:16:56;5.30;99.90
58517;DHT22;44308;50.810;0.284;2023-02-28T00:19:22;5.30;99.90
58517;DHT22;44308;50.810;0.284;2023-02-28T00:21:48;5.30;99.90
58517;DHT22;44308;50.810;0.284;2023-02-28T00:24:13;5.20;99.90
58517;DHT22;44308;50.810;0.284;2023-02-28T00:26:39;5.10;99.90
58517;DHT22;44308;50.810;0.284;2023-02-28T00:29:05;5.10;99.90
58517;DHT22;44308;50.810;0.284;2023-02-28T00:31:30;5.00;99.90
58517;DHT22;44308;50.810;0.284;2023-02-28T00:33:56;4.90;99.90
58517;DHT22;44308;50.810;0.284;2023-02-28T00:36:22;4.80;99.90
58517;DHT22;44308;50.810;0.284;2023-02-28T00:38:48;4.80;99.90
58517;DHT22;44308;50.810;0.284;2023-02-28T00:41:13;4.80;99.90
58517;DHT22;44308;50.810;0.284;2023-02-28T00:43:39;4.80;99.90
58517;DHT22;44308;50.810;0.284;2023-02-28T00:46:08;4.80;99.90
58517;DHT22;44308;50.810;0.284;2023-02-28T00:48:34;4.90;99.90
58517;DHT22;44308;50.810;0.284;2023-02-28T00:51:00;4.90;99.90
58517;DHT22;44308;50.810;0.284;2023-02-28T00:53:26;4.90;99.90
58517;DHT22;44308;50.810;0.284;2023-02-28T00:55:52;4.90;99.90
58517;DHT22;44308;50.810;0.284;2023-02-28T00:58:18;4.90;99.90
58517;DHT22;44308;50.810;0.284;2023-02-28T01:00:44;4.80;99.90
58517;DHT22;44308;50.810;0.284;2023-02-28T01:03:17;4.80;99.90
58517;DHT22;44308;50.810;0.284;2023-02-28T01:05:43;4.70;99.90
58517;DHT22;44308;50.810;0.284;2023-02-28T01:08:09;4.70;99.90
58517;DHT22;44308;50.810;0.284;2023-02-28T01:10:35;4.70;99.90
58517;DHT22;44308;50.810;0.284;2023-02-28T01:13:02;4.70;99.90
58517;DHT22;44308;50.810;0.284;2023-02-28T01:15:28;4.60;99.90
58517;DHT22;44308;50.810;0.284;2023-02-28T01:18:13;4.70;99.90
58517;DHT22;44308;50.810;0.284;2023-02-28T01:20:39;4.70;99.90
58517;DHT22;44308;50.810;0.284;2023-02-28T01:23:08;4.70;99.90
58517;DHT22;44308;50.810;0.284;2023-02-28T01:25:35;4.70;99.90
58517;DHT22;44308;50.810;0.284;2023-02-28T01:28:01;4.70;99.90
58517;DHT22;44308;50.810;0.284;2023-02-28T01:30:27;4.70;99.90
58517;DHT22;44308;50.810;0.284;2023-02-28T01:32:52;4.80;99.90
58517;DHT22;44308;50.810;0.284;2023-02-28T01:35:19;4.80;99.90
58517;DHT22;44308;50.810;0.284;2023-02-28T01:37:46;4.80;99.90
58517;DHT22;44308;50.810;0.284;2023-02-28T01:40:12;4.70;99.90
58517;DHT22;44308;50.810;0.284;2023-02-28T01:42:39;4.60;99.90
58517;DHT22;44308;50.810;0.284;2023-02-28T01:45:27;4.50;99.90
58517;DHT22;44308;50.810;0.284;2023-02-28T01:47:57;4.50;99.90
58517;DHT22;44308;50.810;0.284;2023-02-28T01:50:28;4.50;99.90
58517;DHT22;44308;50.810;0.284;2023-02-28T01:53:00;4.50;99.90
58517;DHT22;44308;50.810;0.284;2023-02-28T01:55:28;4.50;99.90
58517;DHT22;44308;50.810;0.284;2023-02-28T01:57:58;4.50;99.90
58517;DHT22;44308;50.810;0.284;2023-02-28T02:00:27;4.50;99.90
58517;DHT22;44308;50.810;0.284;2023-02-28T02:02:57;4.60;99.90
58517;DHT22;44308;50.810;0.284;2023-02-28T02:05:29;4.60;99.90
58517;DHT22;44308;50.810;0.284;2023-02-28T02:08:06;4.60;99.90
58517;DHT22;44308;50.810;0.284;2023-02-28T02:10:34;4.70;99.90
58517;DHT22;44308;50.810;0.284;2023-02-28T02:29:45;4.70;99.90
58517;DHT22;44308;50.810;0.284;2023-02-28T02:40:41;4.60;99.90
58517;DHT22;44308;50.810;0.284;2023-02-28T02:43:36;4.60;99.90
58517;DHT22;44308;50.810;0.284;2023-02-28T02:46:13;4.60;99.90
58517;DHT22;44308;50.810;0.284;2023-02-28T02:48:41;4.60;99.90
58517;DHT22;44308;50.810;0.284;2023-02-28T02:51:20;4.60;99.90
58517;DHT22;44308;50.810;0.284;2023-02-28T02:53:52;4.60;99.90
58517;DHT22;44308;50.810;0.284;2023-02-28T02:56:22;4.60;99.90
58517;DHT22;44308;50.810;0.284;2023-02-28T02:58:50;4.60;99.90
58517;DHT22;44308;50.810;0.284;2023-02-28T03:01:22;4.60;99.90
58517;DHT22;44308;50.810;0.284;2023-02-28T03:04:01;4.50;99.90
58517;DHT22;44308;50.810;0.284;2023-02-28T03:06:28;4.50;99.90
58517;DHT22;44308;50.810;0.284;2023-02-28T03:08:54;4.50;99.90
58517;DHT22;44308;50.810;0.284;2023-02-28T03:11:19;4.50;99.90
58517;DHT22;44308;50.810;0.284;2023-02-28T03:27:11;4.50;99.90
58517;DHT22;44308;50.810;0.284;2023-02-28T03:29:46;4.40;99.90
58517;DHT22;44308;50.810;0.284;2023-02-28T03:32:21;4.40;99.90
58517;DHT22;44308;50.810;0.284;2023-02-28T03:35:21;4.40;99.90
58517;DHT22;44308;50.810;0.284;2023-02-28T03:37:50;4.30;99.90
58517;DHT22;44308;50.810;0.284;2023-02-28T03:40:22;4.30;99.90
58517;DHT22;44308;50.810;0.284;2023-02-28T03:42:53;4.30;99.90
58517;DHT22;44308;50.810;0.284;2023-02-28T03:45:26;4.30;99.90
58517;DHT22;44308;50.810;0.284;2023-02-28T03:50:41;4.30;99.90
58517;DHT22;44308;50.810;0.284;2023-02-28T03:55:53;4.40;99.90
58517;DHT22;44308;50.810;0.284;2023-02-28T04:00:59;4.40;99.90
58517;DHT22;44308;50.810;0.284;2023-02-28T04:03:33;4.40;99.90
58517;DHT22;44308;50.810;0.284;2023-02-28T04:06:02;4.40;99.90
58517;DHT22;44308;50.810;0.284;2023-02-28T04:08:28;4.40;99.90
58517;DHT22;44308;50.810;0.284;2023-02-28T04:11:15;4.40;99.90
58517;DHT22;44308;50.810;0.284;2023-02-28T04:13:42;4.30;99.90
58517;DHT22;44308;50.810;0.284;2023-02-28T04:16:09;4.40;99.90
58517;DHT22;44308;50.810;0.284;2023-02-28T04:18:38;4.30;99.90
58517;DHT22;44308;50.810;0.284;2023-02-28T04:21:04;4.40;99.90
58517;DHT22;44308;50.810;0.284;2023-02-28T04:23:30;4.40;99.90
58517;DHT22;44308;50.810;0.284;2023-02-28T04:26:16;4.40;99.90
58517;DHT22;44308;50.810;0.284;2023-02-28T04:28:42;4.50;99.90
58517;DHT22;44308;50.810;0.284;2023-02-28T04:31:08;4.50;99.90
58517;DHT22;44308;50.810;0.284;2023-02-28T04:33:34;4.50;99.90
58517;DHT22;44308;50.810;0.284;2023-02-28T04:36:05;4.50;99.90
58517;DHT22;44308;50.810;0.284;2023-02-28T04:38:33;4.60;99.90
58517;DHT22;44308;50.810;0.284;2023-02-28T04:40:59;4.60;99.90
58517;DHT22;44308;50.810;0.284;2023-02-28T04:43:26;4.70;99.90
58517;DHT22;44308;50.810;0.284;2023-02-28T04:45:53;4.70;99.90
58517;DHT22;44308;50.810;0.284;2023-02-28T04:48:23;4.70;99.90
58517;DHT22;44308;50.810;0.284;2023-02-28T04:50:48;4.70;99.90
58517;DHT22;44308;50.810;0.284;2023-02-28T04:53:14;4.70;99.90
58517;DHT22;44308;50.810;0.284;2023-02-28T04:55:43;4.70;99.90
58517;DHT22;44308;50.810;0.284;2023-02-28T04:58:08;4.70;99.90
58517;DHT22;44308;50.810;0.284;2023-02-28T05:00:34;4.80;99.90
58517;DHT22;44308;50.810;0.284;2023-02-28T05:03:00;4.80;99.90
58517;DHT22;44308;50.810;0.284;2023-02-28T05:05:26;4.80;99.90
58517;DHT22;44308;50.810;0.284;2023-02-28T05:10:39;4.70;99.90
58517;DHT22;44308;50.810;0.284;2023-02-28T05:13:05;4.70;99.90
58517;DHT22;44308;50.810;0.284;2023-02-28T05:15:30;4.60;99.90
58517;DHT22;44308;50.810;0.284;2023-02-28T05:21:01;4.50;99.90
58517;DHT22;44308;50.810;0.284;2023-02-28T05:23:27;4.40;99.90
58517;DHT22;44308;50.810;0.284;2023-02-28T05:25:53;4.30;99.90
58517;DHT22;44308;50.810;0.284;2023-02-28T05:28:19;4.20;99.90
58517;DHT22;44308;50.810;0.284;2023-02-28T05:30:45;4.20;99.90
58517;DHT22;44308;50.810;0.284;2023-02-28T05:33:12;4.20;99.90
58517;DHT22;44308;50.810;0.284;2023-02-28T05:35:39;4.20;99.90
58517;DHT22;44308;50.810;0.284;2023-02-28T05:38:04;4.30;99.90
58517;DHT22;44308;50.810;0.284;2023-02-28T05:40:30;4.20;99.90
58517;DHT22;44308;50.810;0.284;2023-02-28T05:42:56;4.20;99.90
58517;DHT22;44308;50.810;0.284;2023-02-28T05:45:21;4.30;99.90
58517;DHT22;44308;50.810;0.284;2023-02-28T05:47:48;4.30;99.90
58517;DHT22;44308;50.810;0.284;2023-02-28T05:50:14;4.30;99.90
58517;DHT22;44308;50.810;0.284;2023-02-28T05:52:40;4.30;99.90
58517;DHT22;44308;50.810;0.284;2023-02-28T05:55:06;4.20;99.90
58517;DHT22;44308;50.810;0.284;2023-02-28T05:57:34;4.30;99.90
58517;DHT22;44308;50.810;0.284;2023-02-28T06:00:00;4.30;99.90
58517;DHT22;44308;50.810;0.284;2023-02-28T06:02:25;4.30;99.90
58517;DHT22;44308;50.810;0.284;2023-02-28T06:04:51;4.30;99.90
58517;DHT22;44308;50.810;0.284;2023-02-28T06:07:35;4.30;99.90
58517;DHT22;44308;50.810;0.284;2023-02-28T06:10:01;4.30;99.90
58517;DHT22;44308;50.810;0.284;2023-02-28T06:12:27;4.30;99.90
58517;DHT22;44308;50.810;0.284;2023-02-28T06:14:52;4.30;99.90
58517;DHT22;44308;50.810;0.284;2023-02-28T06:17:19;4.30;99.90
58517;DHT22;44308;50.810;0.284;2023-02-28T06:19:45;4.30;99.90
58517;DHT22;44308;50.810;0.284;2023-02-28T06:22:10;4.30;99.90
58517;DHT22;44308;50.810;0.284;2023-02-28T06:24:36;4.30;99.90
58517;DHT22;44308;50.810;0.284;2023-02-28T06:27:02;4.30;99.90
58517;DHT22;44308;50.810;0.284;2023-02-28T06:29:32;4.30;99.90
58517;DHT22;44308;50.810;0.284;2023-02-28T06:31:58;4.30;99.90
58517;DHT22;44308;50.810;0.284;2023-02-28T06:34:24;4.30;99.90
58517;DHT22;44308;50.810;0.284;2023-02-28T06:36:51;4.30;99.90
58517;DHT22;44308;50.810;0.284;2023-02-28T06:39:17;4.30;99.90
58517;DHT22;44308;50.810;0.284;2023-02-28T06:41:43;4.30;99.90
58517;DHT22;44308;50.810;0.284;2023-02-28T06:44:20;4.30;99.90
58517;DHT22;44308;50.810;0.284;2023-02-28T06:46:46;4.30;99.90
58517;DHT22;44308;50.810;0.284;2023-02-28T06:49:12;4.30;99.90
58517;DHT22;44308;50.810;0.284;2023-02-28T06:51:41;4.30;99.90
58517;DHT22;44308;50.810;0.284;2023-02-28T06:54:10;4.30;99.90
58517;DHT22;44308;50.810;0.284;2023-02-28T06:56:37;4.30;99.90
58517;DHT22;44308;50.810;0.284;2023-02-28T06:59:03;4.30;99.90
58517;DHT22;44308;50.810;0.284;2023-02-28T07:01:29;4.20;99.90
58517;DHT22;44308;50.810;0.284;2023-02-28T07:03:57;4.30;99.90
58517;DHT22;44308;50.810;0.284;2023-02-28T07:06:25;4.30;99.90
58517;DHT22;44308;50.810;0.284;2023-02-28T07:08:51;4.30;99.90
58517;DHT22;44308;50.810;0.284;2023-02-28T07:11:18;4.30;99.90
58517;DHT22;44308;50.810;0.284;2023-02-28T07:13:44;4.40;99.90
58517;DHT22;44308;50.810;0.284;2023-02-28T07:16:30;4.40;99.90
58517;DHT22;44308;50.810;0.284;2023-02-28T07:18:55;4.40;99.90
58517;DHT22;44308;50.810;0.284;2023-02-28T07:21:21;4.40;99.90
58517;DHT22;44308;50.810;0.284;2023-02-28T07:23:47;4.50;99.90
58517;DHT22;44308;50.810;0.284;2023-02-28T07:26:19;4.50;99.90
58517;DHT22;44308;50.810;0.284;2023-02-28T07:28:47;4.50;99.90
58517;DHT22;44308;50.810;0.284;2023-02-28T07:31:14;4.50;99.90
58517;DHT22;44308;50.810;0.284;2023-02-28T07:33:40;4.60;99.90
58517;DHT22;44308;50.810;0.284;2023-02-28T07:36:25;4.50;99.90
58517;DHT22;44308;50.810;0.284;2023-02-28T07:42:35;4.70;99.90
58517;DHT22;44308;50.810;0.284;2023-02-28T07:45:01;4.80;99.90
58517;DHT22;44308;50.810;0.284;2023-02-28T07:47:29;4.80;99.90
58517;DHT22;44308;50.810;0.284;2023-02-28T07:49:56;4.90;99.90
58517;DHT22;44308;50.810;0.284;2023-02-28T07:52:22;5.00;99.90
58517;DHT22;44308;50.810;0.284;2023-02-28T07:54:49;5.00;99.90
58517;DHT22;44308;50.810;0.284;2023-02-28T07:57:15;5.20;99.90
58517;DHT22;44308;50.810;0.284;2023-02-28T07:59:41;5.20;99.90
58517;DHT22;44308;50.810;0.284;2023-02-28T08:02:09;5.20;99.90
58517;DHT22;44308;50.810;0.284;2023-02-28T08:04:36;5.30;99.90
58517;DHT22;44308;50.810;0.284;2023-02-28T08:07:02;5.30;99.90
58517;DHT22;44308;50.810;0.284;2023-02-28T08:09:28;5.40;99.90
58517;DHT22;44308;50.810;0.284;2023-02-28T08:11:55;5.40;99.90
58517;DHT22;44308;50.810;0.284;2023-02-28T08:14:20;5.40;99.90
58517;DHT22;44308;50.810;0.284;2023-02-28T08:16:46;5.50;99.90
58517;DHT22;44308;50.810;0.284;2023-02-28T08:19:12;5.50;99.90
58517;DHT22;44308;50.810;0.284;2023-02-28T08:21:37;5.60;99.90
58517;DHT22;44308;50.810;0.284;2023-02-28T08:24:03;5.60;99.90
58517;DHT22;44308;50.810;0.284;2023-02-28T08:26:31;5.50;99.90
58517;DHT22;44308;50.810;0.284;2023-02-28T08:28:57;5.50;99.90
58517;DHT22;44308;50.810;0.284;2023-02-28T08:31:22;5.60;99.90
58517;DHT22;44308;50.810;0.284;2023-02-28T08:33:48;5.60;99.90
58517;DHT22;44308;50.810;0.284;2023-02-28T08:36:17;5.60;99.90
58517;DHT22;44308;50.810;0.284;2023-02-28T08:38:43;5.60;99.90
58517;DHT22;44308;50.810;0.284;2023-02-28T08:41:11;5.60;99.90
58517;DHT22;44308;50.810;0.284;2023-02-28T08:43:38;5.60;99.90
58517;DHT22;44308;50.810;0.284;2023-02-28T08:46:04;5.60;99.90
58517;DHT22;44308;50.810;0.284;2023-02-28T08:48:31;5.60;99.90
58517;DHT22;44308;50.810;0.284;2023-02-28T08:51:08;5.60;99.90
58517;DHT22;44308;50.810;0.284;2023-02-28T08:53:35;5.70;99.90
58517;DHT22;44308;50.810;0.284;2023-02-28T08:56:08;5.80;99.90
58517;DHT22;44308;50.810;0.284;2023-02-28T08:58:35;5.80;99.90
58517;DHT22;44308;50.810;0.284;2023-02-28T09:01:06;6.00;99.90
58517;DHT22;44308;50.810;0.284;2023-02-28T09:03:35;6.00;99.90
58517;DHT22;44308;50.810;0.284;2023-02-28T09:06:01;6.10;99.90
58517;DHT22;44308;50.810;0.284;2023-02-28T09:08:29;6.10;99.90
58517;DHT22;44308;50.810;0.284;2023-02-28T09:10:56;6.10;99.90
58517;DHT22;44308;50.810;0.284;2023-02-28T09:13:24;6.40;99.90
58517;DHT22;44308;50.810;0.284;2023-02-28T09:15:50;6.70;99.90
58517;DHT22;44308;50.810;0.284;2023-02-28T09:18:16;6.80;99.90
58517;DHT22;44308;50.810;0.284;2023-02-28T09:20:42;6.80;99.90
58517;DHT22;44308;50.810;0.284;2023-02-28T09:23:10;6.70;99.90
58517;DHT22;44308;50.810;0.284;2023-02-28T09:25:36;6.80;99.90
58517;DHT22;44308;50.810;0.284;2023-02-28T09:28:02;6.70;99.90
58517;DHT22;44308;50.810;0.284;2023-02-28T09:30:29;6.70;99.90
58517;DHT22;44308;50.810;0.284;2023-02-28T09:32:55;6.80;99.90
58517;DHT22;44308;50.810;0.284;2023-02-28T09:35:21;6.70;99.90
58517;DHT22;44308;50.810;0.284;2023-02-28T09:37:51;6.70;99.90
58517;DHT22;44308;50.810;0.284;2023-02-28T09:40:20;6.60;99.90
58517;DHT22;44308;50.810;0.284;2023-02-28T09:42:49;6.70;99.90
58517;DHT22;44308;50.810;0.284;2023-02-28T09:45:37;6.80;99.90
58517;DHT22;44308;50.810;0.284;2023-02-28T09:48:32;7.00;99.90
58517;DHT22;44308;50.810;0.284;2023-02-28T09:53:53;7.40;99.90
58517;DHT22;44308;50.810;0.284;2023-02-28T09:56:24;7.60;99.90
58517;DHT22;44308;50.810;0.284;2023-02-28T10:01:48;8.40;99.90
58517;DHT22;44308;50.810;0.284;2023-02-28T10:06:55;8.60;99.90
58517;DHT22;44308;50.810;0.284;2023-02-28T10:09:30;8.60;99.90
58517;DHT22;44308;50.810;0.284;2023-02-28T10:12:03;9.00;99.90
58517;DHT22;44308;50.810;0.284;2023-02-28T10:14:30;9.20;99.90
58517;DHT22;44308;50.810;0.284;2023-02-28T10:19:30;8.60;99.90
58517;DHT22;44308;50.810;0.284;2023-02-28T10:22:04;8.60;99.90
58517;DHT22;44308;50.810;0.284;2023-02-28T10:24:46;8.60;99.90
58517;DHT22;44308;50.810;0.284;2023-02-28T10:27:14;9.00;99.90
58517;DHT22;44308;50.810;0.284;2023-02-28T10:29:43;9.50;99.90
58517;DHT22;44308;50.810;0.284;2023-02-28T10:32:13;9.50;99.90
58517;DHT22;44308;50.810;0.284;2023-02-28T10:34:40;9.20;99.90
58517;DHT22;44308;50.810;0.284;2023-02-28T10:37:06;9.00;99.90
58517;DHT22;44308;50.810;0.284;2023-02-28T10:39:40;8.90;99.90
58517;DHT22;44308;50.810;0.284;2023-02-28T10:42:20;9.20;99.90
58517;DHT22;44308;50.810;0.284;2023-02-28T10:44:46;9.60;99.90
58517;DHT22;44308;50.810;0.284;2023-02-28T10:47:19;10.50;99.90
58517;DHT22;44308;50.810;0.284;2023-02-28T10:49:49;10.30;99.90
58517;DHT22;44308;50.810;0.284;2023-02-28T10:52:37;10.00;99.90
58517;DHT22;44308;50.810;0.284;2023-02-28T10:55:19;9.90;99.90
58517;DHT22;44308;50.810;0.284;2023-02-28T10:57:46;9.60;99.90
58517;DHT22;44308;50.810;0.284;2023-02-28T11:00:21;9.60;99.90
58517;DHT22;44308;50.810;0.284;2023-02-28T11:02:47;9.60;99.90
58517;DHT22;44308;50.810;0.284;2023-02-28T11:05:33;9.80;99.90
58517;DHT22;44308;50.810;0.284;2023-02-28T11:08:10;9.80;99.90
58517;DHT22;44308;50.810;0.284;2023-02-28T11:10:38;9.60;99.90
58517;DHT22;44308;50.810;0.284;2023-02-28T11:13:05;9.60;99.90
58517;DHT22;44308;50.810;0.284;2023-02-28T11:15:33;9.80;99.90
58517;DHT22;44308;50.810;0.284;2023-02-28T11:18:02;9.90;99.90
58517;DHT22;44308;50.810;0.284;2023-02-28T11:20:32;9.80;99.90
58517;DHT22;44308;50.810;0.284;2023-02-28T11:23:00;9.90;99.90
58517;DHT22;44308;50.810;0.284;2023-02-28T11:25:32;10.00;99.90
58517;DHT22;44308;50.810;0.284;2023-02-28T11:28:00;9.90;99.90
58517;DHT22;44308;50.810;0.284;2023-02-28T11:30:40;9.80;99.90
58517;DHT22;44308;50.810;0.284;2023-02-28T11:36:30;9.50;99.90
58517;DHT22;44308;50.810;0.284;2023-02-28T11:38:59;9.30;99.90
58517;DHT22;44308;50.810;0.284;2023-02-28T11:47:22;9.20;99.90
58517;DHT22;44308;50.810;0.284;2023-02-28T11:50:04;9.10;99.90
58517;DHT22;44308;50.810;0.284;2023-02-28T11:55:20;9.30;99.90
58517;DHT22;44308;50.810;0.284;2023-02-28T12:16:47;8.70;99.90
58517;DHT22;44308;50.810;0.284;2023-02-28T12:19:26;8.60;99.90
58517;DHT22;44308;50.810;0.284;2023-02-28T12:27:20;8.50;99.90
58517;DHT22;44308;50.810;0.284;2023-02-28T12:33:09;8.90;99.90
58517;DHT22;44308;50.810;0.284;2023-02-28T12:38:29;9.80;99.90
58517;DHT22;44308;50.810;0.284;2023-02-28T12:41:10;9.80;99.90
58517;DHT22;44308;50.810;0.284;2023-02-28T12:43:44;10.10;99.90
58517;DHT22;44308;50.810;0.284;2023-02-28T12:46:12;9.90;99.90
58517;DHT22;44308;50.810;0.284;2023-02-28T12:48:44;9.60;99.90
58517;DHT22;44308;50.810;0.284;2023-02-28T12:51:12;9.60;99.90
58517;DHT22;44308;50.810;0.284;2023-02-28T12:59:02;9.80;99.90
58517;DHT22;44308;50.810;0.284;2023-02-28T13:02:02;10.00;99.90
58517;DHT22;44308;50.810;0.284;2023-02-28T13:10:08;9.20;99.90
58517;DHT22;44308;50.810;0.284;2023-02-28T13:12:35;9.00;99.90
58517;DHT22;44308;50.810;0.284;2023-02-28T13:17:40;9.00;99.90
58517;DHT22;44308;50.810;0.284;2023-02-28T13:20:19;9.00;99.90
58517;DHT22;44308;50.810;0.284;2023-02-28T13:22:48;9.00;99.90
58517;DHT22;44308;50.810;0.284;2023-02-28T13:28:12;8.70;99.90
58517;DHT22;44308;50.810;0.284;2023-02-28T13:31:21;8.50;99.90
58517;DHT22;44308;50.810;0.284;2023-02-28T13:33:34;8.20;99.90
58517;DHT22;44308;50.810;0.284;2023-02-28T13:55:06;7.60;99.90
58517;DHT22;44308;50.810;0.284;2023-02-28T13:58:35;7.60;99.90
58517;DHT22;44308;50.810;0.284;2023-02-28T14:03:37;7.70;99.90
58517;DHT22;44308;50.810;0.284;2023-02-28T14:11:36;7.60;99.90
58517;DHT22;44308;50.810;0.284;2023-02-28T14:14:03;7.80;99.90
58517;DHT22;44308;50.810;0.284;2023-02-28T14:16:44;7.90;99.90
58517;DHT22;44308;50.810;0.284;2023-02-28T14:19:15;8.00;99.90
58517;DHT22;44308;50.810;0.284;2023-02-28T14:21:51;8.00;99.90
58517;DHT22;44308;50.810;0.284;2023-02-28T14:37:38;8.30;99.90
58517;DHT22;44308;50.810;0.284;2023-02-28T14:40:16;8.30;99.90
58517;DHT22;44308;50.810;0.284;2023-02-28T14:42:48;8.20;99.90
58517;DHT22;44308;50.810;0.284;2023-02-28T14:45:19;8.20;99.90
58517;DHT22;44308;50.810;0.284;2023-02-28T14:47:45;8.20;99.90
58517;DHT22;44308;50.810;0.284;2023-02-28T14:50:20;8.20;99.90
58517;DHT22;44308;50.810;0.284;2023-02-28T14:52:46;8.30;99.90
58517;DHT22;44308;50.810;0.284;2023-02-28T14:55:16;8.30;99.90
58517;DHT22;44308;50.810;0.284;2023-02-28T14:57:53;8.30;99.90
58517;DHT22;44308;50.810;0.284;2023-02-28T15:00:28;8.40;99.90
58517;DHT22;44308;50.810;0.284;2023-02-28T15:02:56;8.30;99.90
58517;DHT22;44308;50.810;0.284;2023-02-28T15:05:33;8.40;99.90
58517;DHT22;44308;50.810;0.284;2023-02-28T15:08:11;8.40;99.90
58517;DHT22;44308;50.810;0.284;2023-02-28T15:10:40;8.40;99.90
58517;DHT22;44308;50.810;0.284;2023-02-28T15:13:14;8.40;99.90
58517;DHT22;44308;50.810;0.284;2023-02-28T15:15:41;8.30;99.90
58517;DHT22;44308;50.810;0.284;2023-02-28T15:18:14;8.20;99.90
58517;DHT22;44308;50.810;0.284;2023-02-28T15:20:41;8.10;99.90
58517;DHT22;44308;50.810;0.284;2023-02-28T15:23:08;8.10;99.90
58517;DHT22;44308;50.810;0.284;2023-02-28T15:25:34;8.00;99.90
58517;DHT22;44308;50.810;0.284;2023-02-28T15:28:00;7.90;99.90
58517;DHT22;44308;50.810;0.284;2023-02-28T15:30:29;7.90;99.90
58517;DHT22;44308;50.810;0.284;2023-02-28T15:35:34;7.90;99.90
58517;DHT22;44308;50.810;0.284;2023-02-28T15:40:53;7.90;99.90
58517;DHT22;44308;50.810;0.284;2023-02-28T15:46:02;7.90;99.90
58517;DHT22;44308;50.810;0.284;2023-02-28T15:48:37;7.90;99.90
58517;DHT22;44308;50.810;0.284;2023-02-28T15:51:08;7.80;99.90
58517;DHT22;44308;50.810;0.284;2023-02-28T15:53:51;7.80;99.90
58517;DHT22;44308;50.810;0.284;2023-02-28T15:56:23;7.70;99.90
58517;DHT22;44308;50.810;0.284;2023-02-28T15:58:53;7.70;99.90
58517;DHT22;44308;50.810;0.284;2023-02-28T16:08:12;7.70;99.90
58517;DHT22;44308;50.810;0.284;2023-02-28T16:14:17;7.60;99.90
58517;DHT22;44308;50.810;0.284;2023-02-28T16:16:53;7.60;99.90
58517;DHT22;44308;50.810;0.284;2023-02-28T16:19:20;7.50;99.90
58517;DHT22;44308;50.810;0.284;2023-02-28T16:21:46;7.50;99.90
58517;DHT22;44308;50.810;0.284;2023-02-28T16:24:13;7.50;99.90
58517;DHT22;44308;50.810;0.284;2023-02-28T16:26:42;7.40;99.90
58517;DHT22;44308;50.810;0.284;2023-02-28T16:29:15;7.40;99.90
58517;DHT22;44308;50.810;0.284;2023-02-28T16:31:45;7.40;99.90
58517;DHT22;44308;50.810;0.284;2023-02-28T16:34:10;7.40;99.90
58517;DHT22;44308;50.810;0.284;2023-02-28T16:36:36;7.30;99.90
58517;DHT22;44308;50.810;0.284;2023-02-28T16:39:02;7.30;99.90
58517;DHT22;44308;50.810;0.284;2023-02-28T16:41:28;7.30;99.90
58517;DHT22;44308;50.810;0.284;2023-02-28T16:43:55;7.30;99.90
58517;DHT22;44308;50.810;0.284;2023-02-28T16:46:35;7.30;99.90
58517;DHT22;44308;50.810;0.284;2023-02-28T16:49:01;7.30;99.90
58517;DHT22;44308;50.810;0.284;2023-02-28T16:51:27;7.30;99.90
58517;DHT22;44308;50.810;0.284;2023-02-28T16:53:53;7.20;99.90
58517;DHT22;44308;50.810;0.284;2023-02-28T16:56:21;7.10;99.90
58517;DHT22;44308;50.810;0.284;2023-02-28T16:58:48;7.10;99.90
58517;DHT22;44308;50.810;0.284;2023-02-28T17:01:15;7.10;99.90
58517;DHT22;44308;50.810;0.284;2023-02-28T17:03:41;7.10;99.90
58517;DHT22;44308;50.810;0.284;2023-02-28T17:06:20;7.10;99.90
58517;DHT22;44308;50.810;0.284;2023-02-28T17:08:47;7.00;99.90
58517;DHT22;44308;50.810;0.284;2023-02-28T17:11:13;6.90;99.90
58517;DHT22;44308;50.810;0.284;2023-02-28T17:13:39;6.80;99.90
58517;DHT22;44308;50.810;0.284;2023-02-28T17:16:42;6.40;99.90
58517;DHT22;44308;50.810;0.284;2023-02-28T17:19:06;6.20;99.90
58517;DHT22;44308;50.810;0.284;2023-02-28T17:21:32;5.80;99.90
58517;DHT22;44308;50.810;0.284;2023-02-28T17:23:58;5.70;99.90
58517;DHT22;44308;50.810;0.284;2023-02-28T17:26:26;5.50;99.90
58517;DHT22;44308;50.810;0.284;2023-02-28T17:28:54;5.50;99.90
58517;DHT22;44308;50.810;0.284;2023-02-28T17:31:22;5.40;99.90
58517;DHT22;44308;50.810;0.284;2023-02-28T17:33:47;5.30;99.90
58517;DHT22;44308;50.810;0.284;2023-02-28T17:36:20;5.30;99.90
58517;DHT22;44308;50.810;0.284;2023-02-28T17:38:50;5.20;99.90
58517;DHT22;44308;50.810;0.284;2023-02-28T17:41:15;5.10;99.90
58517;DHT22;44308;50.810;0.284;2023-02-28T17:43:41;5.10;99.90
58517;DHT22;44308;50.810;0.284;2023-02-28T17:46:25;5.00;99.90
58517;DHT22;44308;50.810;0.284;2023-02-28T17:48:53;4.90;99.90
58517;DHT22;44308;50.810;0.284;2023-02-28T17:51:21;4.90;99.90
58517;DHT22;44308;50.810;0.284;2023-02-28T17:53:47;4.80;99.90
58517;DHT22;44308;50.810;0.284;2023-02-28T17:56:32;4.90;99.90
58517;DHT22;44308;50.810;0.284;2023-02-28T17:58:58;4.80;99.90
58517;DHT22;44308;50.810;0.284;2023-02-28T18:01:24;4.80;99.90
58517;DHT22;44308;50.810;0.284;2023-02-28T18:03:52;4.80;99.90
58517;DHT22;44308;50.810;0.284;2023-02-28T18:06:41;4.80;99.90
58517;DHT22;44308;50.810;0.284;2023-02-28T18:09:17;4.70;99.90
58517;DHT22;44308;50.810;0.284;2023-02-28T18:11:44;4.80;99.90
58517;DHT22;44308;50.810;0.284;2023-02-28T18:14:15;4.80;99.90
58517;DHT22;44308;50.810;0.284;2023-02-28T18:20:22;4.80;99.90
58517;DHT22;44308;50.810;0.284;2023-02-28T18:22:48;4.80;99.90
58517;DHT22;44308;50.810;0.284;2023-02-28T18:25:13;4.80;99.90
58517;DHT22;44308;50.810;0.284;2023-02-28T18:31:24;4.80;99.90
58517;DHT22;44308;50.810;0.284;2023-02-28T18:33:51;4.80;99.90
58517;DHT22;44308;50.810;0.284;2023-02-28T18:36:19;4.80;99.90
58517;DHT22;44308;50.810;0.284;2023-02-28T18:38:47;4.80;99.90
58517;DHT22;44308;50.810;0.284;2023-02-28T18:41:12;4.70;99.90
58517;DHT22;44308;50.810;0.284;2023-02-28T18:43:38;4.70;99.90
58517;DHT22;44308;50.810;0.284;2023-02-28T18:46:12;4.60;99.90
58517;DHT22;44308;50.810;0.284;2023-02-28T18:48:38;4.60;99.90
58517;DHT22;44308;50.810;0.284;2023-02-28T18:51:06;4.60;99.90
58517;DHT22;44308;50.810;0.284;2023-02-28T18:53:33;4.60;99.90
58517;DHT22;44308;50.810;0.284;2023-02-28T18:56:20;4.60;99.90
58517;DHT22;44308;50.810;0.284;2023-02-28T18:58:48;4.50;99.90
58517;DHT22;44308;50.810;0.284;2023-02-28T19:01:15;4.50;99.90
58517;DHT22;44308;50.810;0.284;2023-02-28T19:03:41;4.40;99.90
58517;DHT22;44308;50.810;0.284;2023-02-28T19:06:08;4.40;99.90
58517;DHT22;44308;50.810;0.284;2023-02-28T19:08:33;4.30;99.90
58517;DHT22;44308;50.810;0.284;2023-02-28T19:11:04;4.20;99.90
58517;DHT22;44308;50.810;0.284;2023-02-28T19:13:30;4.20;99.90